createdAt,value
2018-04-24T00:02:03.543Z,53.70
2018-04-24T00:06:06.244Z,53.90
2018-04-24T00:10:08.843Z,54.00
2018-04-24T00:14:11.488Z,54.40
2018-04-24T00:18:14.191Z,55.80
2018-04-24T00:22:17.590Z,54.80
2018-04-24T00:26:20.312Z,54.70
2018-04-24T00:30:22.919Z,55.60
2018-04-24T00:34:25.644Z,54.80
2018-04-24T00:38:28.257Z,55.00
2018-04-24T00:42:30.908Z,56.00
2018-04-24T00:46:34.314Z,55.60
2018-04-24T00:50:37.688Z,56.10
2018-04-24T00:54:40.348Z,56.10
2018-04-24T00:58:42.996Z,56.50
2018-04-24T01:02:46.408Z,56.10
2018-04-24T01:06:50.015Z,57.80
2018-04-24T01:10:52.574Z,57.70
2018-04-24T01:14:55.215Z,57.40
2018-04-24T01:18:57.864Z,56.60
2018-04-24T01:23:00.500Z,56.90
2018-04-24T01:27:03.148Z,58.50
2018-04-24T01:31:05.769Z,56.90
2018-04-24T01:35:08.417Z,57.20
2018-04-24T01:39:11.056Z,56.20
2018-04-24T01:43:13.784Z,57.30
2018-04-24T01:47:16.423Z,57.10
2018-04-24T01:51:19.032Z,56.30
2018-04-24T01:55:21.671Z,56.80
2018-04-24T01:59:24.347Z,56.70
2018-04-24T02:03:27.051Z,57.00
2018-04-24T02:07:30.455Z,57.10
2018-04-24T02:11:33.823Z,57.10
2018-04-24T02:15:36.462Z,57.10
2018-04-24T02:19:39.867Z,56.70
2018-04-24T02:23:43.271Z,57.60
2018-04-24T02:27:46.719Z,57.30
2018-04-24T02:31:49.328Z,57.40
2018-04-24T02:35:51.968Z,56.60
2018-04-24T02:39:54.604Z,57.20
2018-04-24T02:43:57.324Z,57.60
2018-04-24T02:48:00.731Z,56.50
2018-04-24T02:52:04.128Z,57.30
2018-04-24T02:56:06.768Z,57.20
2018-04-24T03:00:09.434Z,56.70
2018-04-24T03:04:12.077Z,56.50
2018-04-24T03:08:14.721Z,56.80
2018-04-24T03:12:17.328Z,57.00
2018-04-24T03:16:19.981Z,56.60
2018-04-24T03:20:22.628Z,57.10
2018-04-24T03:24:25.275Z,56.30
2018-04-24T03:28:27.880Z,56.60
2018-04-24T03:32:30.515Z,56.90
2018-04-24T03:36:33.920Z,57.40
2018-04-24T03:40:37.332Z,57.20
2018-04-24T03:44:40.740Z,57.80
2018-04-24T03:48:44.107Z,57.00
2018-04-24T03:52:46.752Z,57.00
2018-04-24T03:56:49.402Z,56.90
2018-04-24T04:00:52.061Z,58.90
2018-04-24T04:04:54.752Z,58.00
2018-04-24T04:08:57.355Z,57.50
2018-04-24T04:13:00.048Z,57.40
2018-04-24T04:17:14.443Z,57.60
2018-04-24T04:21:29.592Z,57.90
2018-04-24T04:25:32.238Z,57.80
2018-04-24T04:29:35.619Z,60.00
2018-04-24T04:33:39.076Z,59.50
2018-04-24T04:37:41.719Z,59.50
2018-04-24T04:41:44.400Z,61.20
2018-04-24T04:45:47.800Z,59.90
2018-04-24T04:49:51.170Z,59.70
2018-04-24T04:53:53.834Z,59.70
2018-04-24T04:57:56.475Z,59.30
2018-04-24T05:01:59.115Z,60.90
2018-04-24T05:06:01.724Z,60.10
2018-04-24T05:10:04.370Z,60.90
2018-04-24T05:14:07.076Z,61.70
2018-04-24T05:18:09.713Z,60.50
2018-04-24T05:22:12.358Z,61.50
2018-04-24T05:26:14.961Z,61.40
2018-04-24T05:30:17.605Z,60.10
2018-04-24T05:34:20.272Z,60.60
2018-04-24T05:38:23.676Z,61.00
2018-04-24T05:42:27.047Z,61.10
2018-04-24T05:46:29.684Z,60.00
2018-04-24T05:50:33.092Z,61.70
2018-04-24T05:54:36.550Z,60.50
2018-04-24T05:58:39.253Z,60.50
2018-04-24T06:02:41.864Z,61.20
2018-04-24T06:06:45.272Z,63.00
2018-04-24T06:10:47.939Z,61.80
2018-04-24T06:14:51.493Z,62.60
2018-04-24T06:18:54.189Z,62.60
2018-04-24T06:22:56.783Z,62.40
2018-04-24T06:27:00.188Z,61.40
2018-04-24T06:31:02.826Z,61.40
2018-04-24T06:35:05.457Z,62.00
2018-04-24T06:39:08.112Z,61.80
2018-04-24T06:43:11.486Z,62.60
2018-04-24T06:47:14.132Z,62.60
2018-04-24T06:51:16.823Z,63.10
2018-04-24T06:55:19.492Z,61.80
2018-04-24T06:59:22.858Z,62.20
2018-04-24T07:03:25.506Z,62.10
2018-04-24T07:07:28.149Z,62.60
2018-04-24T07:11:30.784Z,62.20
2018-04-24T07:15:33.419Z,62.20
2018-04-24T07:19:36.031Z,61.70
2018-04-24T07:23:39.434Z,61.70
2018-04-24T07:27:42.836Z,62.40
2018-04-24T07:31:45.464Z,62.30
2018-04-24T07:35:48.109Z,62.30
2018-04-24T07:39:50.720Z,62.30
2018-04-24T07:43:54.155Z,62.00
2018-04-24T07:47:56.856Z,61.90
2018-04-24T07:51:59.619Z,63.10
2018-04-24T07:56:02.272Z,62.50
2018-04-24T08:00:04.884Z,61.90
2018-04-24T08:04:08.306Z,63.20
2018-04-24T08:08:10.998Z,63.10
2018-04-24T08:12:14.430Z,62.60
2018-04-24T08:16:17.123Z,62.50
2018-04-24T08:20:19.737Z,62.40
2018-04-24T08:24:22.384Z,62.20
2018-04-24T08:28:25.035Z,62.80
2018-04-24T08:32:28.453Z,62.80
2018-04-24T08:36:31.101Z,62.80
2018-04-24T08:40:33.709Z,62.80
2018-04-24T08:44:37.139Z,63.00
2018-04-24T08:48:39.775Z,62.90
2018-04-24T08:52:42.429Z,63.20
2018-04-24T08:56:45.099Z,64.50
2018-04-24T09:00:47.724Z,63.50
2018-04-24T09:04:50.383Z,64.70
2018-04-24T09:08:53.095Z,65.00
2018-04-24T09:12:55.750Z,64.50
2018-04-24T09:16:58.397Z,63.60
2018-04-24T09:21:01.008Z,65.70
2018-04-24T09:25:04.415Z,65.10
2018-04-24T09:29:07.820Z,64.40
2018-04-24T09:33:11.755Z,64.30
2018-04-24T09:37:14.400Z,64.60
2018-04-24T09:41:17.022Z,66.30
2018-04-24T09:45:20.497Z,66.70
2018-04-24T09:49:23.141Z,66.60
2018-04-24T09:53:25.789Z,66.60
2018-04-24T09:57:28.438Z,65.80
2018-04-24T10:01:31.052Z,65.40
2018-04-24T10:05:33.752Z,66.20
2018-04-24T10:09:36.404Z,65.10
2018-04-24T10:13:39.108Z,65.30
2018-04-24T10:17:41.733Z,66.10
2018-04-24T10:21:45.107Z,65.70
2018-04-24T10:25:48.544Z,65.60
2018-04-24T10:29:51.954Z,65.00
2018-04-24T10:33:55.359Z,64.80
2018-04-24T10:37:58.776Z,65.50
2018-04-24T10:42:01.392Z,65.40
2018-04-24T10:46:04.031Z,65.80
2018-04-24T10:50:06.686Z,65.80
2018-04-24T10:54:09.333Z,65.00
2018-04-24T10:58:11.976Z,65.20
2018-04-24T11:02:15.387Z,65.10
2018-04-24T11:06:18.035Z,65.00
2018-04-24T11:10:20.696Z,64.60
2018-04-24T11:14:24.183Z,65.00
2018-04-24T11:18:27.735Z,64.50
2018-04-24T11:22:30.368Z,64.50
2018-04-24T11:26:33.044Z,65.40
2018-04-24T11:30:35.676Z,65.00
2018-04-24T11:34:39.088Z,65.20
2018-04-24T11:38:41.729Z,65.10
2018-04-24T11:42:44.342Z,64.60
2018-04-24T11:46:47.014Z,64.10
2018-04-24T11:50:49.657Z,63.70
2018-04-24T11:54:52.305Z,63.70
2018-04-24T11:58:54.948Z,63.20
2018-04-24T12:02:57.554Z,63.10
2018-04-24T12:07:00.197Z,63.00
2018-04-24T12:11:02.839Z,62.90
2018-04-24T12:15:05.484Z,62.90
2018-04-24T12:19:08.088Z,63.10
2018-04-24T12:23:10.736Z,63.00
2018-04-24T12:27:14.205Z,63.40
2018-04-24T12:31:16.864Z,63.40
2018-04-24T12:35:19.512Z,63.40
2018-04-24T12:39:22.946Z,62.90
2018-04-24T12:43:25.592Z,62.90
2018-04-24T12:47:28.237Z,62.70
2018-04-24T12:51:30.882Z,62.70
2018-04-24T12:55:33.573Z,62.40
2018-04-24T12:59:36.183Z,62.40
2018-04-24T13:03:38.823Z,62.40
2018-04-24T13:07:41.524Z,62.80
2018-04-24T13:11:44.165Z,62.60
2018-04-24T13:15:46.900Z,62.50
2018-04-24T13:19:49.538Z,62.30
2018-04-24T13:23:52.176Z,61.90
2018-04-24T13:27:54.818Z,61.80
2018-04-24T13:31:57.477Z,61.50
2018-04-24T13:36:00.901Z,61.80
2018-04-24T13:40:03.523Z,61.70
2018-04-24T13:44:06.190Z,60.80
2018-04-24T13:48:08.852Z,60.70
2018-04-24T13:52:12.280Z,61.60
2018-04-24T13:56:14.938Z,61.50
2018-04-24T14:00:17.576Z,61.60
2018-04-24T14:04:20.222Z,61.70
2018-04-24T14:08:22.859Z,61.70
2018-04-24T14:12:25.499Z,61.70
2018-04-24T14:16:28.137Z,61.80
2018-04-24T14:20:30.758Z,62.10
2018-04-24T14:24:34.180Z,62.10
2018-04-24T14:28:36.819Z,62.00
2018-04-24T14:32:39.468Z,62.00
2018-04-24T14:36:42.107Z,62.20
2018-04-24T14:40:44.708Z,61.60
2018-04-24T14:44:48.112Z,62.10
2018-04-24T14:48:51.519Z,62.10
2018-04-24T14:52:54.932Z,62.00
2018-04-24T14:56:58.343Z,62.30
2018-04-24T15:01:01.725Z,61.90
2018-04-24T15:05:04.408Z,61.30
2018-04-24T15:09:07.057Z,61.90
2018-04-24T15:13:09.700Z,62.00
2018-04-24T15:17:12.331Z,62.20
2018-04-24T15:21:14.941Z,62.40
2018-04-24T15:25:17.579Z,62.50
2018-04-24T15:29:21.000Z,62.50
2018-04-24T15:33:23.648Z,62.40
2018-04-24T15:37:26.262Z,62.30
2018-04-24T15:41:29.677Z,62.30
2018-04-24T15:45:32.311Z,62.30
2018-04-24T15:49:34.957Z,62.40
2018-04-24T15:53:37.599Z,62.70
2018-04-24T15:57:40.235Z,62.30
2018-04-24T16:01:42.894Z,62.20
2018-04-24T16:05:46.317Z,62.30
2018-04-24T16:09:49.740Z,62.50
2018-04-24T16:13:52.400Z,61.70
2018-04-24T16:17:55.835Z,62.20
2018-04-24T16:21:58.503Z,62.20
2018-04-24T16:26:01.184Z,62.10
2018-04-24T16:30:04.701Z,62.20
2018-04-24T16:34:07.312Z,61.40
2018-04-24T16:38:09.963Z,61.20
2018-04-24T16:42:13.447Z,61.80
2018-04-24T16:46:16.120Z,61.00
2018-04-24T16:50:19.132Z,61.70
2018-04-24T16:54:21.887Z,61.80
2018-04-24T16:58:24.467Z,61.80
2018-04-24T17:02:27.117Z,61.90
2018-04-24T17:06:29.766Z,61.40
2018-04-24T17:10:32.412Z,61.90
2018-04-24T17:14:35.785Z,61.50
2018-04-24T17:18:38.423Z,61.40
2018-04-24T17:22:41.126Z,61.30
2018-04-24T17:26:43.773Z,61.50
2018-04-24T17:30:47.210Z,61.40
2018-04-24T17:34:49.833Z,61.50
2018-04-24T17:38:52.485Z,61.80
2018-04-24T17:42:55.182Z,61.60
2018-04-24T17:46:58.569Z,61.50
2018-04-24T17:51:01.370Z,61.40
2018-04-24T17:55:04.017Z,61.80
2018-04-24T17:59:06.688Z,61.50
2018-04-24T18:03:10.150Z,61.40
2018-04-24T18:07:12.816Z,61.30
2018-04-24T18:11:16.263Z,61.50
2018-04-24T18:15:18.906Z,61.50
2018-04-24T18:19:22.343Z,61.50
2018-04-24T18:23:25.012Z,61.40
2018-04-24T18:27:28.445Z,61.70
2018-04-24T18:31:31.066Z,61.70
2018-04-24T18:35:33.713Z,61.60
2018-04-24T18:39:36.508Z,61.40
2018-04-24T18:43:39.149Z,61.40
2018-04-24T18:47:41.840Z,61.60
2018-04-24T18:51:44.452Z,61.60
2018-04-24T18:55:47.865Z,62.00
2018-04-24T18:59:51.278Z,61.60
2018-04-24T19:03:53.948Z,61.50
2018-04-24T19:07:57.410Z,61.50
2018-04-24T19:12:00.121Z,60.80
2018-04-24T19:16:02.791Z,61.40
2018-04-24T19:20:05.459Z,61.20
2018-04-24T19:24:08.126Z,61.50
2018-04-24T19:28:10.770Z,61.10
2018-04-24T19:32:19.140Z,61.30
2018-04-24T19:36:21.796Z,61.20
2018-04-24T19:44:59.735Z,61.40
2018-04-24T19:49:08.220Z,61.30
2018-04-24T19:53:10.786Z,61.20
2018-04-24T19:57:13.428Z,61.20
2018-04-24T20:01:16.074Z,61.20
2018-04-24T20:05:18.735Z,61.00
2018-04-24T20:09:22.113Z,61.10
2018-04-24T20:13:24.756Z,61.10
2018-04-24T20:17:27.410Z,61.00
2018-04-24T20:21:30.893Z,61.30
2018-04-24T20:25:33.545Z,61.20
2018-04-24T20:29:36.148Z,61.20
2018-04-24T20:33:38.794Z,61.20
2018-04-24T20:37:41.452Z,61.30
2018-04-24T20:41:44.095Z,61.40
2018-04-24T20:45:46.739Z,61.20
2018-04-24T20:49:49.349Z,61.30
2018-04-24T20:53:52.000Z,62.00
2018-04-24T20:57:54.648Z,61.70
2018-04-24T21:01:57.348Z,61.50
2018-04-24T21:05:59.987Z,61.60
2018-04-24T21:10:03.364Z,61.30
2018-04-24T21:14:06.072Z,61.20
2018-04-24T21:18:08.724Z,61.20
2018-04-24T21:22:11.386Z,61.70
2018-04-24T21:26:14.076Z,61.90
2018-04-24T21:30:16.710Z,62.10
2018-04-24T21:34:19.355Z,62.00
2018-04-24T21:38:22.007Z,62.20
2018-04-24T21:42:24.743Z,61.50
2018-04-24T21:46:27.357Z,61.80
2018-04-24T21:50:30.008Z,62.40
2018-04-24T21:54:33.432Z,62.30
2018-04-24T21:58:36.132Z,62.30
2018-04-24T22:02:38.788Z,62.40
2018-04-24T22:06:41.461Z,62.50
2018-04-24T22:10:44.937Z,62.00
2018-04-24T22:14:47.587Z,62.00
2018-04-24T22:18:50.227Z,62.50
2018-04-24T22:22:52.927Z,62.40
2018-04-24T22:26:56.305Z,62.90
2018-04-24T22:30:58.963Z,62.90
2018-04-24T22:35:01.612Z,62.80
2018-04-24T22:39:05.035Z,63.40
2018-04-24T22:43:07.684Z,63.30
2018-04-24T22:47:10.307Z,63.30
2018-04-24T22:51:12.952Z,63.20
2018-04-24T22:55:15.600Z,62.60
2018-04-24T22:59:18.244Z,62.50
2018-04-24T23:03:20.933Z,63.10
2018-04-24T23:07:23.560Z,62.70
2018-04-24T23:11:38.168Z,63.40
2018-04-24T23:15:52.747Z,64.70
2018-04-24T23:20:07.109Z,64.60
2018-04-24T23:24:09.829Z,64.10
2018-04-24T23:28:13.248Z,64.40
2018-04-24T23:32:15.852Z,64.30
2018-04-24T23:36:18.500Z,64.30
2018-04-24T23:40:21.926Z,65.10
2018-04-24T23:44:24.580Z,64.90
2018-04-24T23:48:27.221Z,65.10
2018-04-24T23:52:30.597Z,64.90
2018-04-24T23:56:35.951Z,64.90
